Etusivu
METAR-TAF:

METAR-TAF

Lentoasemat :

Örnsköldsvik, Ruotsi

Örnsköldsvikin lentoasema

Leveyspiiri: 63-24N, Pituuspiiri: 018-58E, korkeus merenpinnasta: 103 m

Tämänhetkinen sää

Tämä raportti tehtiin 27 minuuttia sitten, kello 20.20 UTC
tyyntä
Lämpötila 12°C
Kosteus 88%
Ilmanpaine 1020 hPa
Näkyvyys 10 km tai enemmän

METAR: ESNO 212020Z AUTO 00000KT 9999 OVC082/// 12/10 Q1020

Aika: 22:47 (20:47 UTC)

Sääennuste

Tämä raportti tehtiin 9 tuntia ja 17 minuuttia sitten, kello 11.30 UTC
Ennuste voimassa 21. päivästä klo 12 UTC - 21. päivään klo 16 UTC
Tuuli 6 kn etelästä/kaakosta
Näkyvyys 10 km tai enemmän
Hajonneita pilviä 3000 ft:n korkeudessa
Ajoittain
21. päivästä klo 12 UTC - 21. päivään klo 16 UTC
Hajonneita pilviä 2000 ft:n korkeudessa, Cumulonimbus.
vesikuuroja

TAF: ESNO 211130Z 2112/2116 16006KT 9999 BKN030 TEMPO 2112/2116 SHRA BKN020CB

Säähavainnot ja -ennusteet yli 4000 lentoasemalta (METAR- ja TAF-raportit).

Käytössä olevat sääasemat on merkitty karttaan keltaisilla ja punaisilla pisteillä.

Aseta hiiri pisteen päälle nähdäksesi sääaseman nimen.

Klikkaa sitten nähdäksesi säähavainnot ja -ennusteet.

Kartan vaihtaminen: klikkaa mustalla rastilla varustettuja vihreitä pisteitä, niin voit zoomata sisään; viivalla varustettua vihreää pistettä, niin voit zoomata ulos tai vihreitä nuolia, niin pääset viereisille kartoille.


METAR-TAF: